Bishop International Airport
KFNT : now visible

Airfield :











YOU CAN JOIN US ON...

 
LOGIN :

Register | Disclaimer

   EN    FR    IT 

 









Legend :    VFR   Marginal VFR   IFR   Intensive IFR   Very Intensive IFR
Visi :
Ceiling :
>= 8 km
>= 3000ft
5 to 8 km
1000 to 3000 ft
1500m to 5 km
500 to 1000 ft
800 to 1500m
200 to 500 ft
< 800m
< 200 ft
Symbols :   Thunderstorms  Fog  Heavy snow  Heavy precipitations  Wind > 20 kt






- Airport Elevation : 782 ft
- IATA code : FNT


KFNT - Bishop International

CURRENT METAR :
  • 130453Z 00000KT 10SM CLR 15/12 A3013 RMK AO2 SLP200 T01500122 403110111

EXPIRED METARs :
  • 130353Z 00000KT 10SM CLR 20/12 A3012 RMK AO2 SLP195 T02000122
  • 130253Z 15006KT 10SM CLR 21/14 A3011 RMK AO2 SLP193 T02060144 50008

TAF KFNT
Valid from the 13 at 06:00 until the 14 at 06:00 UTC


130525Z 1306/1406 12003KT P6SM SKC
FM131500 06007KT P6SM SCT250
KZOB FIR / North America



MET'MAP, your aeronautical weather chart ! - Copyright ORBIFLY December 2007 - Disclaimer

ORBIFLY MET'MAP TEAM :

Programming & Development : Alexandra Zaïnal
Concept & original design : Baudouin d'Aumeries
Assistance for programming : Marc-Olivier Méhu
Technical & hardware support : Manuel Goepfert

Contact : metmap@orbifly.com




SOURCES & CREDITS :

   NOAA       Earth
Advisory